Terminal Aerodrome Forecast
Issued by NWS

Home | Current Version | Previous Version | Text Only | Print | Product List | Glossary On
Versions: 1 2 3 4 5 6 7 8 9 10 11 12 13 14 15 16 17 18 19 20 21 22
965
FTUS44 KTSA 241120
TAFFYV
TAF
KFYV 241120Z 2412/2512 29012G22KT P6SM BKN018
      TEMPO 2412/2416 SCT018
     FM241600 30015G24KT P6SM SCT025
     FM242100 30013G22KT P6SM BKN040
     FM250600 31011KT P6SM SCT030=

USA.gov is the U.S. government's official web portal to all federal, state and local government web resources and services.